Portada
METAR-TAF:

METAR-TAF

Aeroports :

Wangaratta, Austràlia

latitud: 36-24-57S, longitud: 146-18-25E, altitud: 154 m

Observació

L'informe es va fer fa 1 hora i 5 minuts, a les 19:00 UTC
Vent 2 kt del Oest/Nord-Oest
Temperatura 8°C
Humitat 93%
Pressió 1016 hPa
Visibilitat 10 km o més

METAR: YWGT 131900Z AUTO 30002KT 9999 // NCD 08/07 Q1016

Hora: 07:05 (20:05 UTC)

Pronòstic

L'informe es va fer fa 3 hores i 1 minuts, a les 17:04 UTC
Pronòstic vàlid del 13 a les 19 UTC al 14 a les 08 UTC
Vent 12 kt del Oest
Visibilitat 10 km o més
Escasses núvols a una alçada de 4000 ft

TAF: YWGT 131704Z 1319/1408 26012KT 9999 FEW040

Observacions i pronòstics meteorològics de més de 4000 aeroports (METAR i TAF).

Les estacions disponibles són els punts grocs i vermells al mapa.

Posi el ratolí al punt desitjat per veure el nom de l'estació.

Feu clic per veure les observacions i els pronòstics meteorològics.

Per canviar el mapa: feu clic els botons verds amb una creu de color negre per apropar; al botó verd amb un guió per allunyar la imatge; o en les fletxes verdes per a mapes adjacents.


METAR-TAF: